Terminal Aerodrome Forecast
Issued by NWS

Home | Current Version | Previous Version | Graphics & Text | Print | Product List | Glossary On
Versions: 1 2 3 4 5 6 7 8 9 10 11 12 13 14 15 16 17
000
FTUS42 KMHX 192323
TAFPGV
TAF
KPGV 192323Z 2000/2024 VRB04KT P6SM FEW050 BKN150
     FM200300 VRB03KT P6SM SKC
     FM200800 VRB02KT 2SM BR SCT005
     FM201200 VRB05KT P6SM SCT050
      AMD LTD TO CLD VIS AND WIND=

USA.gov is the U.S. government's official web portal to all federal, state and local government web resources and services.